createdAt,value
2023-02-19T00:00:22.339Z,63.07
2023-02-19T00:02:52.854Z,63.13
2023-02-19T00:05:25.737Z,63.02
2023-02-19T00:07:55.802Z,63.17
2023-02-19T00:10:25.859Z,62.70
2023-02-19T00:12:55.954Z,63.15
2023-02-19T00:15:26.219Z,63.25
2023-02-19T00:17:56.312Z,62.57
2023-02-19T00:20:28.799Z,62.89
2023-02-19T00:22:58.642Z,63.01
2023-02-19T00:25:28.932Z,62.74
2023-02-19T00:27:58.935Z,62.61
2023-02-19T00:30:28.879Z,62.79
2023-02-19T00:32:59.010Z,62.89
2023-02-19T00:35:32.249Z,62.57
2023-02-19T00:38:02.352Z,62.40
2023-02-19T00:40:33.224Z,62.72
2023-02-19T00:43:03.044Z,62.79
2023-02-19T00:45:35.297Z,62.76
2023-02-19T00:48:05.355Z,62.70
2023-02-19T00:50:38.223Z,62.46
2023-02-19T00:53:08.117Z,62.58
2023-02-19T00:55:38.477Z,62.71
2023-02-19T00:58:08.656Z,62.56
2023-02-19T01:00:38.480Z,62.14
2023-02-19T01:03:08.318Z,62.37
2023-02-19T01:05:40.982Z,62.77
2023-02-19T01:08:11.546Z,63.39
2023-02-19T01:10:41.690Z,63.29
2023-02-19T01:13:11.580Z,63.16
2023-02-19T01:15:42.312Z,62.67
2023-02-19T01:18:12.897Z,62.51
2023-02-19T01:20:47.230Z,62.64
2023-02-19T01:23:17.751Z,62.71
2023-02-19T01:25:47.855Z,62.94
2023-02-19T01:28:18.433Z,63.10
2023-02-19T01:30:48.692Z,62.73
2023-02-19T01:33:18.664Z,62.83
2023-02-19T01:35:51.318Z,63.16
2023-02-19T01:38:22.117Z,63.73
2023-02-19T01:40:58.777Z,63.66
2023-02-19T01:43:29.325Z,64.27
2023-02-19T01:45:59.167Z,64.16
2023-02-19T01:48:35.200Z,63.81
2023-02-19T01:51:12.753Z,64.07
2023-02-19T01:53:48.278Z,64.05
2023-02-19T01:56:22.575Z,64.04
2023-02-19T01:58:54.278Z,63.74
2023-02-19T02:01:24.174Z,63.90
2023-02-19T02:03:55.059Z,65.29
2023-02-19T02:06:32.669Z,65.29
2023-02-19T02:09:16.933Z,65.24
2023-02-19T02:11:50.793Z,65.61
2023-02-19T02:14:24.504Z,65.95
2023-02-19T02:17:03.845Z,67.26
2023-02-19T02:19:52.699Z,67.54
2023-02-19T02:22:32.502Z,68.82
2023-02-19T02:25:30.430Z,69.48
2023-02-19T02:28:20.124Z,70.81
2023-02-19T02:30:59.195Z,71.55
2023-02-19T02:33:39.708Z,71.13
2023-02-19T02:36:16.397Z,71.42
2023-02-19T02:38:50.360Z,72.40
2023-02-19T02:41:23.921Z,71.76
2023-02-19T02:43:53.847Z,71.64
2023-02-19T02:46:33.005Z,73.38
2023-02-19T02:49:08.721Z,73.95
2023-02-19T02:51:44.175Z,73.87
2023-02-19T02:54:37.407Z,75.06
2023-02-19T02:57:15.073Z,74.85
2023-02-19T03:00:00.391Z,76.28
2023-02-19T03:02:31.779Z,76.76
2023-02-19T03:05:22.056Z,76.76
2023-02-19T03:07:59.658Z,75.62
2023-02-19T03:10:37.542Z,76.66
2023-02-19T03:13:27.126Z,77.72
2023-02-19T03:16:16.842Z,77.62
2023-02-19T03:19:08.332Z,76.62
2023-02-19T03:21:45.115Z,77.50
2023-02-19T03:24:29.392Z,77.85
2023-02-19T03:27:01.763Z,79.31
2023-02-19T03:29:42.476Z,78.21
2023-02-19T03:32:18.567Z,79.02
2023-02-19T03:34:58.741Z,78.80
2023-02-19T03:37:35.910Z,79.54
2023-02-19T03:40:06.557Z,79.87
2023-02-19T03:42:46.443Z,80.22
2023-02-19T03:45:34.739Z,80.43
2023-02-19T03:48:25.601Z,80.64
2023-02-19T03:51:09.616Z,80.18
2023-02-19T03:53:53.152Z,80.18
2023-02-19T03:56:34.016Z,80.26
2023-02-19T03:59:13.607Z,80.33
2023-02-19T04:01:48.957Z,81.14
2023-02-19T04:04:25.894Z,81.50
2023-02-19T04:07:01.402Z,80.82
2023-02-19T04:09:41.188Z,81.04
2023-02-19T04:12:18.100Z,81.70
2023-02-19T04:14:59.221Z,82.11
2023-02-19T04:17:37.846Z,81.77
2023-02-19T04:20:14.004Z,81.25
2023-02-19T04:22:47.679Z,81.78
2023-02-19T04:25:17.664Z,81.24
2023-02-19T04:27:49.694Z,80.93
2023-02-19T04:30:19.591Z,81.32
2023-02-19T04:32:49.453Z,81.41
2023-02-19T04:35:19.629Z,81.54
2023-02-19T04:37:52.587Z,80.87
2023-02-19T04:40:23.021Z,81.16
2023-02-19T04:42:53.185Z,80.94
2023-02-19T04:45:23.378Z,81.02
2023-02-19T04:47:53.289Z,80.46
2023-02-19T04:50:23.351Z,80.63
2023-02-19T04:52:55.995Z,80.01
2023-02-19T04:55:26.548Z,80.24
2023-02-19T04:57:56.409Z,79.98
2023-02-19T05:00:26.244Z,80.24
2023-02-19T05:02:56.109Z,80.25
2023-02-19T05:05:26.189Z,80.03
2023-02-19T05:07:58.662Z,80.49
2023-02-19T05:10:28.650Z,81.06
2023-02-19T05:12:58.719Z,81.23
2023-02-19T05:15:29.029Z,80.63
2023-02-19T05:17:59.215Z,80.39
2023-02-19T05:20:29.296Z,81.26
2023-02-19T05:23:01.818Z,80.01
2023-02-19T05:25:31.650Z,79.75
2023-02-19T05:28:17.452Z,80.09
2023-02-19T05:30:48.264Z,79.96
2023-02-19T05:33:20.002Z,80.28
2023-02-19T05:35:51.830Z,79.50
2023-02-19T05:38:25.845Z,79.75
2023-02-19T05:40:55.995Z,79.47
2023-02-19T05:43:26.102Z,79.28
2023-02-19T05:45:57.282Z,79.34
2023-02-19T05:48:27.436Z,78.84
2023-02-19T05:50:57.496Z,79.20
2023-02-19T05:53:30.071Z,78.25
2023-02-19T05:56:00.049Z,78.92
2023-02-19T05:58:30.651Z,79.75
2023-02-19T06:01:00.478Z,79.06
2023-02-19T06:03:30.486Z,78.85
2023-02-19T06:06:00.858Z,78.65
2023-02-19T06:08:33.536Z,78.80
2023-02-19T06:11:03.713Z,78.53
2023-02-19T06:13:33.556Z,78.32
2023-02-19T06:16:06.861Z,79.42
2023-02-19T06:18:37.142Z,78.73
2023-02-19T06:21:09.675Z,78.29
2023-02-19T06:23:42.701Z,78.51
2023-02-19T06:26:15.709Z,78.17
2023-02-19T06:28:47.401Z,78.15
2023-02-19T06:31:18.428Z,78.32
2023-02-19T06:33:50.712Z,78.28
2023-02-19T06:36:23.813Z,78.28
2023-02-19T06:38:58.918Z,77.79
2023-02-19T06:41:29.219Z,78.07
2023-02-19T06:44:00.484Z,78.26
2023-02-19T06:46:30.847Z,78.10
2023-02-19T06:49:00.835Z,78.58
2023-02-19T06:51:32.934Z,78.26
2023-02-19T06:54:05.713Z,78.06
2023-02-19T06:56:39.883Z,77.33
2023-02-19T06:59:12.749Z,77.35
2023-02-19T07:01:43.675Z,76.93
2023-02-19T07:04:14.212Z,77.07
2023-02-19T07:06:44.655Z,76.94
2023-02-19T07:09:17.067Z,76.04
2023-02-19T07:11:47.089Z,76.81
2023-02-19T07:14:19.386Z,76.89
2023-02-19T07:16:51.352Z,77.14
2023-02-19T07:19:21.311Z,77.55
2023-02-19T07:21:51.510Z,77.58
2023-02-19T07:24:24.100Z,77.81
2023-02-19T07:26:54.659Z,77.75
2023-02-19T07:29:24.562Z,77.79
2023-02-19T07:31:54.554Z,78.04
2023-02-19T07:34:25.255Z,77.76
2023-02-19T07:36:55.530Z,76.36
2023-02-19T07:39:27.996Z,76.67
2023-02-19T07:41:58.317Z,77.68
2023-02-19T07:44:31.153Z,77.17
2023-02-19T07:47:01.405Z,77.30
2023-02-19T07:49:31.619Z,78.25
2023-02-19T07:52:01.594Z,78.41
2023-02-19T07:54:34.742Z,78.69
2023-02-19T07:57:04.581Z,79.16
2023-02-19T07:59:34.856Z,79.20
2023-02-19T08:02:17.185Z,79.52
2023-02-19T08:04:47.396Z,80.09
2023-02-19T08:07:17.586Z,80.55
2023-02-19T08:10:10.684Z,80.56
2023-02-19T08:12:53.071Z,80.65
2023-02-19T08:15:23.155Z,80.51
2023-02-19T08:17:53.076Z,80.11
2023-02-19T08:20:23.093Z,80.38
2023-02-19T08:22:52.973Z,80.18
2023-02-19T08:25:25.953Z,79.88
2023-02-19T08:27:56.247Z,79.39
2023-02-19T08:30:26.559Z,79.42
2023-02-19T08:32:56.878Z,80.19
2023-02-19T08:35:26.911Z,79.77
2023-02-19T08:37:58.886Z,79.96
2023-02-19T08:40:32.464Z,79.76
2023-02-19T08:43:05.897Z,80.09
2023-02-19T08:45:36.487Z,80.39
2023-02-19T08:48:07.011Z,81.28
2023-02-19T08:50:38.227Z,80.49
2023-02-19T08:53:09.985Z,80.52
2023-02-19T08:55:42.596Z,81.10
2023-02-19T08:58:13.705Z,80.77
2023-02-19T09:00:43.619Z,81.03
2023-02-19T09:03:14.405Z,81.22
2023-02-19T09:05:46.913Z,80.97
2023-02-19T09:08:16.976Z,80.96
2023-02-19T09:10:59.693Z,80.80
2023-02-19T09:13:30.043Z,80.35
2023-02-19T09:16:00.187Z,80.24
2023-02-19T09:18:30.133Z,79.99
2023-02-19T09:21:04.708Z,80.25
2023-02-19T09:23:36.618Z,79.97
2023-02-19T09:26:10.247Z,78.34
2023-02-19T09:28:42.040Z,74.62
2023-02-19T09:31:15.014Z,65.42
2023-02-19T09:33:46.359Z,66.65
2023-02-19T09:36:19.105Z,68.61
2023-02-19T09:38:49.252Z,69.07
2023-02-19T09:41:32.111Z,68.04
2023-02-19T09:44:04.299Z,66.81
2023-02-19T09:46:41.148Z,66.82
2023-02-19T09:49:18.286Z,67.99
2023-02-19T09:51:54.082Z,68.21
2023-02-19T09:54:27.646Z,68.54
2023-02-19T09:57:04.501Z,68.77
2023-02-19T09:59:43.752Z,69.41
2023-02-19T10:02:18.679Z,67.77
2023-02-19T10:04:51.287Z,65.66
2023-02-19T10:07:24.312Z,60.89
2023-02-19T10:10:00.784Z,56.30
2023-02-19T10:12:35.277Z,54.98
2023-02-19T10:15:15.043Z,55.26
2023-02-19T10:17:44.979Z,54.62
2023-02-19T10:20:19.289Z,47.84
2023-02-19T10:22:49.833Z,44.34
2023-02-19T10:25:20.553Z,41.85
2023-02-19T10:27:53.104Z,38.00
2023-02-19T10:30:26.941Z,37.81
2023-02-19T10:33:07.062Z,36.89
2023-02-19T10:35:40.765Z,35.62
2023-02-19T10:38:10.860Z,35.18
2023-02-19T10:40:48.471Z,36.03
2023-02-19T10:43:33.502Z,35.76
2023-02-19T10:46:08.712Z,34.28
2023-02-19T10:48:43.649Z,33.82
2023-02-19T10:51:23.026Z,37.34
2023-02-19T10:54:05.677Z,34.78
2023-02-19T10:56:39.057Z,39.08
2023-02-19T10:59:27.723Z,41.08
2023-02-19T11:01:59.860Z,42.68
2023-02-19T11:04:34.267Z,44.10
2023-02-19T11:07:12.423Z,46.30
2023-02-19T11:09:45.717Z,43.93
2023-02-19T11:12:26.147Z,45.49
2023-02-19T11:14:59.168Z,46.97
2023-02-19T11:17:32.445Z,47.54
2023-02-19T11:20:10.078Z,48.02
2023-02-19T11:22:42.724Z,47.67
2023-02-19T11:25:25.768Z,46.47
2023-02-19T11:28:00.377Z,45.48
2023-02-19T11:30:40.509Z,45.61
2023-02-19T11:33:31.558Z,46.63
2023-02-19T11:36:18.980Z,47.83
2023-02-19T11:38:48.930Z,47.99
2023-02-19T11:41:32.728Z,49.57
2023-02-19T11:44:17.744Z,51.28
2023-02-19T11:47:03.000Z,53.04
2023-02-19T11:49:47.942Z,53.08
2023-02-19T11:52:35.223Z,52.17
2023-02-19T11:55:17.135Z,52.01
2023-02-19T11:57:51.055Z,52.05
2023-02-19T12:00:28.894Z,51.90
2023-02-19T12:03:24.982Z,51.52
2023-02-19T12:06:11.661Z,51.75
2023-02-19T12:09:12.092Z,51.87
2023-02-19T12:11:59.643Z,51.86
2023-02-19T12:15:10.513Z,51.45
2023-02-19T12:17:59.913Z,51.86
2023-02-19T12:20:40.848Z,52.19
2023-02-19T12:23:41.400Z,52.38
2023-02-19T12:26:25.204Z,52.62
2023-02-19T12:29:23.307Z,52.92
2023-02-19T12:32:28.780Z,53.08
2023-02-19T12:35:31.901Z,53.69
2023-02-19T12:38:17.414Z,53.93
2023-02-19T12:41:03.917Z,57.05
2023-02-19T12:43:39.792Z,58.76
2023-02-19T12:46:15.501Z,59.13
2023-02-19T12:48:56.330Z,58.52
2023-02-19T12:51:31.956Z,58.39
2023-02-19T12:54:11.356Z,58.35
2023-02-19T12:56:47.815Z,58.02
2023-02-19T12:59:26.780Z,57.01
2023-02-19T13:02:06.402Z,55.30
2023-02-19T13:04:48.302Z,55.37
2023-02-19T13:07:27.176Z,54.57
2023-02-19T13:10:09.814Z,54.70
2023-02-19T13:12:45.166Z,56.80
2023-02-19T13:15:21.799Z,55.51
2023-02-19T13:17:55.668Z,54.61
2023-02-19T13:20:30.687Z,54.91
2023-02-19T13:23:22.067Z,56.37
2023-02-19T13:26:20.953Z,55.55
2023-02-19T13:29:10.206Z,55.94
2023-02-19T13:32:03.057Z,55.90
2023-02-19T13:34:52.956Z,56.91
2023-02-19T13:37:25.553Z,58.16
2023-02-19T13:39:58.241Z,57.55
2023-02-19T13:42:36.170Z,57.70
2023-02-19T13:45:09.117Z,57.91
2023-02-19T13:47:52.081Z,59.66
2023-02-19T13:50:26.500Z,60.67
2023-02-19T13:52:57.179Z,59.29
2023-02-19T13:55:55.253Z,60.18
2023-02-19T13:59:01.561Z,59.53
2023-02-19T14:02:17.816Z,59.29
2023-02-19T14:04:57.173Z,59.19
2023-02-19T14:07:52.346Z,60.19
2023-02-19T14:10:57.844Z,60.66
2023-02-19T14:13:59.290Z,60.67
2023-02-19T14:17:05.232Z,60.30
2023-02-19T14:20:27.033Z,60.43
2023-02-19T14:23:16.732Z,60.43
2023-02-19T14:25:58.652Z,60.11
2023-02-19T14:28:36.031Z,60.79
2023-02-19T14:31:18.237Z,60.96
2023-02-19T14:33:52.310Z,60.93
2023-02-19T14:36:48.821Z,60.57
2023-02-19T14:39:23.098Z,60.63
2023-02-19T14:41:56.742Z,59.96
2023-02-19T14:44:31.923Z,59.58
2023-02-19T14:47:07.181Z,59.53
2023-02-19T14:49:45.933Z,59.15
2023-02-19T14:52:26.566Z,59.35
2023-02-19T14:55:01.433Z,59.14
2023-02-19T14:57:35.518Z,59.41
2023-02-19T15:00:25.258Z,59.58
2023-02-19T15:03:00.183Z,59.67
2023-02-19T15:05:32.519Z,59.61
2023-02-19T15:08:10.555Z,59.50
2023-02-19T15:10:44.903Z,59.56
2023-02-19T15:13:22.686Z,59.82
2023-02-19T15:15:53.512Z,59.92
2023-02-19T15:18:26.732Z,59.59
2023-02-19T15:21:05.766Z,59.62
2023-02-19T15:23:38.860Z,59.46
2023-02-19T15:26:25.093Z,59.47
2023-02-19T15:29:03.301Z,58.74
2023-02-19T15:31:33.606Z,58.74
2023-02-19T15:34:03.564Z,58.29
2023-02-19T15:36:37.995Z,58.16
2023-02-19T15:39:10.405Z,57.93
2023-02-19T15:41:43.425Z,57.76
2023-02-19T15:44:35.267Z,57.71
2023-02-19T15:47:17.586Z,57.89
2023-02-19T15:49:57.261Z,57.30
2023-02-19T15:52:37.210Z,57.63
2023-02-19T15:55:29.661Z,57.98
2023-02-19T15:58:09.071Z,58.09
2023-02-19T16:00:48.343Z,58.32
2023-02-19T16:03:21.918Z,58.53
2023-02-19T16:06:02.312Z,58.92
2023-02-19T16:08:34.375Z,59.16
2023-02-19T16:11:08.792Z,59.26
2023-02-19T16:13:39.555Z,59.45
2023-02-19T16:16:23.800Z,59.69
2023-02-19T16:18:55.696Z,60.05
2023-02-19T16:21:32.671Z,60.60
2023-02-19T16:24:09.358Z,60.96
2023-02-19T16:26:48.787Z,61.21
2023-02-19T16:29:23.271Z,61.47
2023-02-19T16:31:57.642Z,61.58
2023-02-19T16:34:36.387Z,61.79
2023-02-19T16:37:27.121Z,62.34
2023-02-19T16:40:33.557Z,62.32
2023-02-19T16:43:32.104Z,62.71
2023-02-19T16:46:06.607Z,63.11
2023-02-19T16:48:37.167Z,63.10
2023-02-19T16:51:09.169Z,62.97
2023-02-19T16:53:42.288Z,62.95
2023-02-19T16:56:18.685Z,62.76
2023-02-19T16:58:52.127Z,62.75
2023-02-19T17:01:22.018Z,62.52
2023-02-19T17:03:53.176Z,62.67
2023-02-19T17:06:23.898Z,62.15
2023-02-19T17:08:53.757Z,61.35
2023-02-19T17:11:24.116Z,61.46
2023-02-19T17:13:56.747Z,61.46
2023-02-19T17:16:29.796Z,60.84
2023-02-19T17:18:59.959Z,61.52
2023-02-19T17:21:32.008Z,61.58
2023-02-19T17:24:03.652Z,61.54
2023-02-19T17:26:35.916Z,61.68
2023-02-19T17:29:13.938Z,61.70
2023-02-19T17:31:44.151Z,62.10
2023-02-19T17:34:15.100Z,62.18
2023-02-19T17:36:46.064Z,62.66
2023-02-19T17:39:17.994Z,62.81
2023-02-19T17:41:47.993Z,63.08
2023-02-19T17:44:21.332Z,63.49
2023-02-19T17:46:51.304Z,63.46
2023-02-19T17:49:21.401Z,63.76
2023-02-19T17:51:51.171Z,66.90
2023-02-19T17:54:21.539Z,64.63
2023-02-19T17:56:52.123Z,65.21
2023-02-19T17:59:24.710Z,64.21
2023-02-19T18:01:54.541Z,64.49
2023-02-19T18:04:26.264Z,65.31
2023-02-19T18:06:56.839Z,64.39
2023-02-19T18:09:27.189Z,63.78
2023-02-19T18:11:57.165Z,63.69
2023-02-19T18:14:31.386Z,63.29
2023-02-19T18:17:01.382Z,63.00
2023-02-19T18:19:32.577Z,62.82
2023-02-19T18:22:02.438Z,62.35
2023-02-19T18:24:32.278Z,63.55
2023-02-19T18:27:02.085Z,62.23
2023-02-19T18:29:35.202Z,61.10
2023-02-19T18:32:05.116Z,59.60
2023-02-19T18:34:35.429Z,59.51
2023-02-19T18:37:05.977Z,61.18
2023-02-19T18:39:36.569Z,60.84
2023-02-19T18:42:09.446Z,59.87
2023-02-19T18:44:43.079Z,59.60
2023-02-19T18:47:14.507Z,58.55
2023-02-19T18:49:49.156Z,59.66
2023-02-19T18:52:23.982Z,59.79
2023-02-19T18:54:56.179Z,60.93
2023-02-19T18:57:27.819Z,61.98
2023-02-19T19:00:00.494Z,63.29
2023-02-19T19:02:42.628Z,63.67
2023-02-19T19:05:22.656Z,63.92
2023-02-19T19:07:54.135Z,64.06
2023-02-19T19:10:25.121Z,64.10
2023-02-19T19:12:55.193Z,64.14
2023-02-19T19:15:29.512Z,64.21
2023-02-19T19:17:59.745Z,64.52
2023-02-19T19:20:29.717Z,64.42
2023-02-19T19:22:59.638Z,64.63
2023-02-19T19:25:29.976Z,64.54
2023-02-19T19:28:00.030Z,64.96
2023-02-19T19:30:33.961Z,65.17
2023-02-19T19:33:04.254Z,65.53
2023-02-19T19:35:34.419Z,65.26
2023-02-19T19:38:04.489Z,65.10
2023-02-19T19:40:34.837Z,65.45
2023-02-19T19:43:05.190Z,66.00
2023-02-19T19:45:38.066Z,65.40
2023-02-19T19:48:08.985Z,64.94
2023-02-19T19:50:38.810Z,64.79
2023-02-19T19:53:08.648Z,65.65
2023-02-19T19:55:38.930Z,65.36
2023-02-19T19:58:08.841Z,65.59
2023-02-19T20:00:41.240Z,65.64
2023-02-19T20:03:11.123Z,65.21
2023-02-19T20:05:40.910Z,65.55
2023-02-19T20:08:11.231Z,65.03
2023-02-19T20:10:41.106Z,65.22
2023-02-19T20:13:13.829Z,65.27
2023-02-19T20:15:46.816Z,65.50
2023-02-19T20:18:16.976Z,65.77
2023-02-19T20:20:46.793Z,65.73
2023-02-19T20:23:17.049Z,65.69
2023-02-19T20:25:48.069Z,65.94
2023-02-19T20:28:17.914Z,66.29
2023-02-19T20:30:50.432Z,66.30
2023-02-19T20:33:20.408Z,66.04
2023-02-19T20:35:50.607Z,66.34
2023-02-19T20:38:20.734Z,66.70
2023-02-19T20:40:50.628Z,66.57
2023-02-19T20:43:20.494Z,66.56
2023-02-19T20:45:53.116Z,66.63
2023-02-19T20:48:23.329Z,66.72
2023-02-19T20:50:59.226Z,66.39
2023-02-19T20:53:29.106Z,66.59
2023-02-19T20:55:59.288Z,66.91
2023-02-19T20:58:29.722Z,66.95
2023-02-19T21:01:02.215Z,66.97
2023-02-19T21:03:32.612Z,66.87
2023-02-19T21:06:02.769Z,67.19
2023-02-19T21:08:32.676Z,67.17
2023-02-19T21:11:02.520Z,66.90
2023-02-19T21:13:32.460Z,66.96
2023-02-19T21:16:05.482Z,67.19
2023-02-19T21:18:35.367Z,67.27
2023-02-19T21:21:05.478Z,67.18
2023-02-19T21:23:35.402Z,67.22
2023-02-19T21:26:06.157Z,67.34
2023-02-19T21:28:36.115Z,67.66
2023-02-19T21:31:08.913Z,67.58
2023-02-19T21:33:38.774Z,67.57
2023-02-19T21:36:10.184Z,67.38
2023-02-19T21:38:40.437Z,67.75
2023-02-19T21:41:10.499Z,67.38
2023-02-19T21:43:41.028Z,67.29
2023-02-19T21:46:21.101Z,67.04
2023-02-19T21:48:51.518Z,67.21
2023-02-19T21:51:24.922Z,67.33
2023-02-19T21:53:55.133Z,67.11
2023-02-19T21:56:26.510Z,67.12
2023-02-19T21:58:56.807Z,66.75
2023-02-19T22:01:31.979Z,67.25
2023-02-19T22:04:03.223Z,67.13
2023-02-19T22:06:34.776Z,66.68
2023-02-19T22:09:05.610Z,66.81
2023-02-19T22:11:35.544Z,67.02
2023-02-19T22:14:06.712Z,67.06
2023-02-19T22:16:39.202Z,67.12
2023-02-19T22:19:09.442Z,67.66
2023-02-19T22:21:39.306Z,67.78
2023-02-19T22:24:09.570Z,67.67
2023-02-19T22:26:39.453Z,67.43
2023-02-19T22:29:13.026Z,68.02
2023-02-19T22:31:46.439Z,68.00
2023-02-19T22:34:17.919Z,67.87
2023-02-19T22:36:48.610Z,68.16
2023-02-19T22:39:21.586Z,67.82
2023-02-19T22:41:52.226Z,68.04
2023-02-19T22:44:22.408Z,67.90
2023-02-19T22:46:57.431Z,67.95
2023-02-19T22:49:27.773Z,67.73
2023-02-19T22:52:01.512Z,67.24
2023-02-19T22:54:31.532Z,67.61
2023-02-19T22:57:01.350Z,67.69
2023-02-19T22:59:32.252Z,67.78
2023-02-19T23:02:05.033Z,67.66
2023-02-19T23:04:35.588Z,67.57
2023-02-19T23:07:05.516Z,67.73
2023-02-19T23:09:35.652Z,67.62
2023-02-19T23:12:08.514Z,67.76
2023-02-19T23:14:38.575Z,67.81
2023-02-19T23:17:11.210Z,68.23
2023-02-19T23:19:41.145Z,68.14
2023-02-19T23:22:11.638Z,68.53
2023-02-19T23:24:41.464Z,68.60
2023-02-19T23:27:11.383Z,68.60
2023-02-19T23:29:41.161Z,68.97
2023-02-19T23:32:14.082Z,68.84
2023-02-19T23:34:45.223Z,69.03
2023-02-19T23:37:15.466Z,68.92
2023-02-19T23:39:45.409Z,68.89
2023-02-19T23:42:18.455Z,69.07
2023-02-19T23:44:48.965Z,69.17
2023-02-19T23:47:22.612Z,69.46
2023-02-19T23:49:52.706Z,69.44
2023-02-19T23:52:22.522Z,69.32
2023-02-19T23:54:52.733Z,69.41
2023-02-19T23:57:22.566Z,69.32
2023-02-19T23:59:52.781Z,69.21
